sensor_id;sensor_type;location;lat;lon;timestamp;P1;durP1;ratioP1;P2;durP2;ratioP2
31770;SDS011;18343;50.152;8.182;2024-03-29T00:02:22;3.65;;;1.30;;
31770;SDS011;18343;50.152;8.182;2024-03-29T00:05:07;5.70;;;1.45;;
31770;SDS011;18343;50.152;8.182;2024-03-29T00:07:52;5.65;;;1.40;;
31770;SDS011;18343;50.152;8.182;2024-03-29T00:10:36;8.88;;;2.20;;
31770;SDS011;18343;50.152;8.182;2024-03-29T00:13:21;3.80;;;1.27;;
31770;SDS011;18343;50.152;8.182;2024-03-29T00:16:07;6.78;;;1.60;;
31770;SDS011;18343;50.152;8.182;2024-03-29T00:18:52;3.88;;;1.20;;
31770;SDS011;18343;50.152;8.182;2024-03-29T00:21:36;2.65;;;1.50;;
31770;SDS011;18343;50.152;8.182;2024-03-29T00:24:21;7.22;;;1.25;;
31770;SDS011;18343;50.152;8.182;2024-03-29T00:27:06;5.15;;;1.67;;
31770;SDS011;18343;50.152;8.182;2024-03-29T00:29:50;4.32;;;1.75;;
31770;SDS011;18343;50.152;8.182;2024-03-29T00:32:36;7.13;;;1.52;;
31770;SDS011;18343;50.152;8.182;2024-03-29T00:35:21;7.32;;;1.70;;
31770;SDS011;18343;50.152;8.182;2024-03-29T00:38:05;10.60;;;1.83;;
31770;SDS011;18343;50.152;8.182;2024-03-29T00:40:50;5.07;;;1.80;;
31770;SDS011;18343;50.152;8.182;2024-03-29T00:43:34;5.47;;;1.70;;
31770;SDS011;18343;50.152;8.182;2024-03-29T00:46:19;4.38;;;2.00;;
31770;SDS011;18343;50.152;8.182;2024-03-29T00:49:05;4.63;;;1.75;;
31770;SDS011;18343;50.152;8.182;2024-03-29T00:51:49;5.82;;;1.67;;
31770;SDS011;18343;50.152;8.182;2024-03-29T00:54:33;2.55;;;1.60;;
31770;SDS011;18343;50.152;8.182;2024-03-29T00:57:18;6.35;;;1.90;;
31770;SDS011;18343;50.152;8.182;2024-03-29T01:00:03;6.45;;;1.92;;
31770;SDS011;18343;50.152;8.182;2024-03-29T01:02:48;4.72;;;1.60;;
31770;SDS011;18343;50.152;8.182;2024-03-29T01:05:34;4.13;;;1.20;;
31770;SDS011;18343;50.152;8.182;2024-03-29T01:08:19;4.78;;;1.50;;
31770;SDS011;18343;50.152;8.182;2024-03-29T01:11:03;10.13;;;1.75;;
31770;SDS011;18343;50.152;8.182;2024-03-29T01:13:48;2.28;;;1.50;;
31770;SDS011;18343;50.152;8.182;2024-03-29T01:16:32;8.57;;;1.55;;
31770;SDS011;18343;50.152;8.182;2024-03-29T01:19:17;3.72;;;1.50;;
31770;SDS011;18343;50.152;8.182;2024-03-29T01:22:03;4.47;;;1.60;;
31770;SDS011;18343;50.152;8.182;2024-03-29T01:24:47;2.95;;;1.60;;
31770;SDS011;18343;50.152;8.182;2024-03-29T01:27:32;4.90;;;1.90;;
31770;SDS011;18343;50.152;8.182;2024-03-29T01:30:16;7.57;;;2.00;;
31770;SDS011;18343;50.152;8.182;2024-03-29T01:33:01;5.20;;;2.03;;
31770;SDS011;18343;50.152;8.182;2024-03-29T01:35:46;6.50;;;1.83;;
31770;SDS011;18343;50.152;8.182;2024-03-29T01:38:32;4.32;;;1.65;;
31770;SDS011;18343;50.152;8.182;2024-03-29T01:41:17;12.90;;;2.28;;
31770;SDS011;18343;50.152;8.182;2024-03-29T01:44:02;3.33;;;1.85;;
31770;SDS011;18343;50.152;8.182;2024-03-29T01:46:47;3.88;;;2.30;;
31770;SDS011;18343;50.152;8.182;2024-03-29T01:49:32;3.33;;;1.90;;
31770;SDS011;18343;50.152;8.182;2024-03-29T01:52:17;6.95;;;1.80;;
31770;SDS011;18343;50.152;8.182;2024-03-29T01:55:05;4.45;;;2.33;;
31770;SDS011;18343;50.152;8.182;2024-03-29T01:57:51;7.43;;;2.00;;
31770;SDS011;18343;50.152;8.182;2024-03-29T02:00:36;7.88;;;1.75;;
31770;SDS011;18343;50.152;8.182;2024-03-29T02:03:22;5.65;;;1.70;;
31770;SDS011;18343;50.152;8.182;2024-03-29T02:06:07;3.70;;;1.65;;
31770;SDS011;18343;50.152;8.182;2024-03-29T02:08:52;6.07;;;1.63;;
31770;SDS011;18343;50.152;8.182;2024-03-29T02:11:38;7.18;;;1.98;;
31770;SDS011;18343;50.152;8.182;2024-03-29T02:14:23;3.70;;;1.77;;
31770;SDS011;18343;50.152;8.182;2024-03-29T02:17:07;4.65;;;1.83;;
31770;SDS011;18343;50.152;8.182;2024-03-29T02:19:52;6.07;;;2.17;;
31770;SDS011;18343;50.152;8.182;2024-03-29T02:22:36;2.92;;;1.38;;
31770;SDS011;18343;50.152;8.182;2024-03-29T02:25:31;3.67;;;1.70;;
31770;SDS011;18343;50.152;8.182;2024-03-29T02:28:16;3.00;;;1.50;;
31770;SDS011;18343;50.152;8.182;2024-03-29T02:31:00;3.78;;;1.50;;
31770;SDS011;18343;50.152;8.182;2024-03-29T02:33:45;3.65;;;1.48;;
31770;SDS011;18343;50.152;8.182;2024-03-29T02:36:29;2.58;;;1.50;;
31770;SDS011;18343;50.152;8.182;2024-03-29T02:39:14;4.50;;;1.60;;
31770;SDS011;18343;50.152;8.182;2024-03-29T02:42:00;4.68;;;1.65;;
31770;SDS011;18343;50.152;8.182;2024-03-29T02:44:46;4.00;;;1.42;;
31770;SDS011;18343;50.152;8.182;2024-03-29T02:47:30;4.30;;;1.50;;
31770;SDS011;18343;50.152;8.182;2024-03-29T02:50:15;4.05;;;2.10;;
31770;SDS011;18343;50.152;8.182;2024-03-29T02:53:00;6.82;;;1.80;;
31770;SDS011;18343;50.152;8.182;2024-03-29T02:55:45;4.35;;;1.75;;
31770;SDS011;18343;50.152;8.182;2024-03-29T02:58:30;5.65;;;1.88;;
31770;SDS011;18343;50.152;8.182;2024-03-29T03:01:15;7.25;;;1.60;;
31770;SDS011;18343;50.152;8.182;2024-03-29T03:04:00;5.32;;;1.52;;
31770;SDS011;18343;50.152;8.182;2024-03-29T03:06:44;4.80;;;1.90;;
31770;SDS011;18343;50.152;8.182;2024-03-29T03:09:29;5.10;;;1.50;;
31770;SDS011;18343;50.152;8.182;2024-03-29T03:12:13;3.22;;;1.40;;
31770;SDS011;18343;50.152;8.182;2024-03-29T03:14:59;3.58;;;1.70;;
31770;SDS011;18343;50.152;8.182;2024-03-29T03:17:44;4.72;;;1.83;;
31770;SDS011;18343;50.152;8.182;2024-03-29T03:20:28;9.63;;;1.98;;
31770;SDS011;18343;50.152;8.182;2024-03-29T03:23:13;4.43;;;1.75;;
31770;SDS011;18343;50.152;8.182;2024-03-29T03:25:57;4.43;;;1.65;;
31770;SDS011;18343;50.152;8.182;2024-03-29T03:28:43;8.20;;;1.73;;
31770;SDS011;18343;50.152;8.182;2024-03-29T03:31:29;4.65;;;1.63;;
31770;SDS011;18343;50.152;8.182;2024-03-29T03:34:14;6.18;;;1.77;;
31770;SDS011;18343;50.152;8.182;2024-03-29T03:36:58;6.78;;;1.58;;
31770;SDS011;18343;50.152;8.182;2024-03-29T03:39:42;3.70;;;1.90;;
31770;SDS011;18343;50.152;8.182;2024-03-29T03:42:27;4.30;;;1.67;;
31770;SDS011;18343;50.152;8.182;2024-03-29T03:45:12;6.40;;;1.70;;
31770;SDS011;18343;50.152;8.182;2024-03-29T03:47:58;2.95;;;1.67;;
31770;SDS011;18343;50.152;8.182;2024-03-29T03:50:42;5.15;;;1.95;;
31770;SDS011;18343;50.152;8.182;2024-03-29T03:53:27;5.55;;;1.77;;
31770;SDS011;18343;50.152;8.182;2024-03-29T03:56:11;4.15;;;2.03;;
31770;SDS011;18343;50.152;8.182;2024-03-29T03:58:56;5.97;;;2.28;;
31770;SDS011;18343;50.152;8.182;2024-03-29T04:01:40;5.47;;;1.83;;
31770;SDS011;18343;50.152;8.182;2024-03-29T04:04:26;8.00;;;1.58;;
31770;SDS011;18343;50.152;8.182;2024-03-29T04:07:11;2.97;;;1.63;;
31770;SDS011;18343;50.152;8.182;2024-03-29T04:09:55;4.00;;;1.80;;
31770;SDS011;18343;50.152;8.182;2024-03-29T04:12:40;4.40;;;1.48;;
31770;SDS011;18343;50.152;8.182;2024-03-29T04:15:24;4.47;;;1.88;;
31770;SDS011;18343;50.152;8.182;2024-03-29T04:18:09;7.00;;;2.05;;
31770;SDS011;18343;50.152;8.182;2024-03-29T04:20:57;10.43;;;2.53;;
31770;SDS011;18343;50.152;8.182;2024-03-29T04:23:42;2.83;;;1.45;;
31770;SDS011;18343;50.152;8.182;2024-03-29T04:26:26;4.97;;;1.70;;
31770;SDS011;18343;50.152;8.182;2024-03-29T04:29:11;4.40;;;2.08;;
31770;SDS011;18343;50.152;8.182;2024-03-29T04:31:55;3.03;;;1.77;;
31770;SDS011;18343;50.152;8.182;2024-03-29T04:34:40;4.65;;;1.70;;
31770;SDS011;18343;50.152;8.182;2024-03-29T04:37:26;7.35;;;1.90;;
31770;SDS011;18343;50.152;8.182;2024-03-29T04:40:10;6.85;;;1.80;;
31770;SDS011;18343;50.152;8.182;2024-03-29T04:42:55;5.10;;;1.70;;
31770;SDS011;18343;50.152;8.182;2024-03-29T04:45:42;4.90;;;1.85;;
31770;SDS011;18343;50.152;8.182;2024-03-29T04:48:28;10.15;;;2.38;;
31770;SDS011;18343;50.152;8.182;2024-03-29T04:51:12;2.35;;;1.73;;
31770;SDS011;18343;50.152;8.182;2024-03-29T04:53:58;8.35;;;2.00;;
31770;SDS011;18343;50.152;8.182;2024-03-29T04:56:42;6.38;;;2.38;;
31770;SDS011;18343;50.152;8.182;2024-03-29T04:59:27;5.57;;;2.42;;
31770;SDS011;18343;50.152;8.182;2024-03-29T05:02:12;6.32;;;2.33;;
31770;SDS011;18343;50.152;8.182;2024-03-29T05:04:56;3.60;;;2.00;;
31770;SDS011;18343;50.152;8.182;2024-03-29T05:07:41;7.60;;;2.47;;
31770;SDS011;18343;50.152;8.182;2024-03-29T05:10:27;4.82;;;2.67;;
31770;SDS011;18343;50.152;8.182;2024-03-29T05:13:11;3.78;;;2.25;;
31770;SDS011;18343;50.152;8.182;2024-03-29T05:15:56;6.20;;;1.70;;
31770;SDS011;18343;50.152;8.182;2024-03-29T05:18:41;2.88;;;1.67;;
31770;SDS011;18343;50.152;8.182;2024-03-29T05:21:25;3.75;;;1.95;;
31770;SDS011;18343;50.152;8.182;2024-03-29T05:24:09;6.32;;;2.03;;
31770;SDS011;18343;50.152;8.182;2024-03-29T05:26:55;5.90;;;2.10;;
31770;SDS011;18343;50.152;8.182;2024-03-29T05:29:39;9.25;;;2.10;;
31770;SDS011;18343;50.152;8.182;2024-03-29T05:32:24;7.03;;;2.10;;
31770;SDS011;18343;50.152;8.182;2024-03-29T05:35:09;7.00;;;2.10;;
31770;SDS011;18343;50.152;8.182;2024-03-29T05:37:54;5.32;;;2.30;;
31770;SDS011;18343;50.152;8.182;2024-03-29T05:40:38;5.25;;;1.98;;
31770;SDS011;18343;50.152;8.182;2024-03-29T05:43:24;6.00;;;2.20;;
31770;SDS011;18343;50.152;8.182;2024-03-29T05:46:09;3.45;;;2.33;;
31770;SDS011;18343;50.152;8.182;2024-03-29T05:48:53;3.72;;;2.33;;
31770;SDS011;18343;50.152;8.182;2024-03-29T05:51:38;3.60;;;2.00;;
31770;SDS011;18343;50.152;8.182;2024-03-29T05:54:22;6.00;;;2.08;;
31770;SDS011;18343;50.152;8.182;2024-03-29T05:57:07;2.65;;;1.80;;
31770;SDS011;18343;50.152;8.182;2024-03-29T05:59:53;4.38;;;2.10;;
31770;SDS011;18343;50.152;8.182;2024-03-29T06:02:37;2.33;;;1.90;;
31770;SDS011;18343;50.152;8.182;2024-03-29T06:05:21;5.10;;;1.75;;
31770;SDS011;18343;50.152;8.182;2024-03-29T06:08:07;3.55;;;2.10;;
31770;SDS011;18343;50.152;8.182;2024-03-29T06:10:52;3.75;;;2.15;;
31770;SDS011;18343;50.152;8.182;2024-03-29T06:13:37;5.38;;;2.10;;
31770;SDS011;18343;50.152;8.182;2024-03-29T06:16:25;3.45;;;1.80;;
31770;SDS011;18343;50.152;8.182;2024-03-29T06:19:12;3.55;;;1.80;;
31770;SDS011;18343;50.152;8.182;2024-03-29T06:21:56;3.72;;;2.00;;
31770;SDS011;18343;50.152;8.182;2024-03-29T06:24:43;5.80;;;2.15;;
31770;SDS011;18343;50.152;8.182;2024-03-29T06:27:29;3.67;;;2.20;;
31770;SDS011;18343;50.152;8.182;2024-03-29T06:30:16;8.75;;;1.75;;
31770;SDS011;18343;50.152;8.182;2024-03-29T06:33:03;3.03;;;1.80;;
31770;SDS011;18343;50.152;8.182;2024-03-29T06:35:52;8.35;;;1.95;;
31770;SDS011;18343;50.152;8.182;2024-03-29T06:38:38;4.90;;;2.13;;
31770;SDS011;18343;50.152;8.182;2024-03-29T06:41:23;4.43;;;1.75;;
31770;SDS011;18343;50.152;8.182;2024-03-29T06:44:08;3.50;;;1.65;;
31770;SDS011;18343;50.152;8.182;2024-03-29T06:46:52;6.47;;;1.98;;
31770;SDS011;18343;50.152;8.182;2024-03-29T06:49:38;5.38;;;1.92;;
31770;SDS011;18343;50.152;8.182;2024-03-29T06:52:23;5.78;;;2.78;;
31770;SDS011;18343;50.152;8.182;2024-03-29T06:55:08;3.38;;;2.55;;
31770;SDS011;18343;50.152;8.182;2024-03-29T06:57:53;4.70;;;2.47;;
31770;SDS011;18343;50.152;8.182;2024-03-29T07:00:38;6.80;;;2.00;;
31770;SDS011;18343;50.152;8.182;2024-03-29T07:03:23;7.95;;;2.72;;
31770;SDS011;18343;50.152;8.182;2024-03-29T07:06:11;4.63;;;2.40;;
31770;SDS011;18343;50.152;8.182;2024-03-29T07:08:56;7.32;;;2.40;;
31770;SDS011;18343;50.152;8.182;2024-03-29T07:11:41;4.65;;;2.10;;
31770;SDS011;18343;50.152;8.182;2024-03-29T07:14:25;3.25;;;2.08;;
31770;SDS011;18343;50.152;8.182;2024-03-29T07:17:10;5.68;;;2.30;;
31770;SDS011;18343;50.152;8.182;2024-03-29T07:19:55;6.78;;;2.58;;
31770;SDS011;18343;50.152;8.182;2024-03-29T07:22:41;2.55;;;1.90;;
31770;SDS011;18343;50.152;8.182;2024-03-29T07:25:37;2.97;;;1.98;;
31770;SDS011;18343;50.152;8.182;2024-03-29T07:28:21;5.80;;;2.40;;
31770;SDS011;18343;50.152;8.182;2024-03-29T07:31:07;5.65;;;2.20;;
31770;SDS011;18343;50.152;8.182;2024-03-29T07:33:58;7.35;;;2.60;;
31770;SDS011;18343;50.152;8.182;2024-03-29T07:36:43;7.13;;;2.08;;
31770;SDS011;18343;50.152;8.182;2024-03-29T07:39:29;4.65;;;2.45;;
31770;SDS011;18343;50.152;8.182;2024-03-29T07:42:13;9.40;;;2.70;;
31770;SDS011;18343;50.152;8.182;2024-03-29T07:44:58;4.55;;;1.85;;
31770;SDS011;18343;50.152;8.182;2024-03-29T07:47:43;4.00;;;2.13;;
31770;SDS011;18343;50.152;8.182;2024-03-29T07:50:28;2.78;;;2.13;;
31770;SDS011;18343;50.152;8.182;2024-03-29T07:53:13;3.20;;;2.22;;
31770;SDS011;18343;50.152;8.182;2024-03-29T07:55:59;6.78;;;1.98;;
31770;SDS011;18343;50.152;8.182;2024-03-29T07:58:43;3.08;;;2.10;;
31770;SDS011;18343;50.152;8.182;2024-03-29T08:01:28;3.42;;;2.08;;
31770;SDS011;18343;50.152;8.182;2024-03-29T08:04:13;4.05;;;2.20;;
31770;SDS011;18343;50.152;8.182;2024-03-29T08:07:03;2.78;;;1.80;;
31770;SDS011;18343;50.152;8.182;2024-03-29T08:09:48;3.03;;;1.80;;
31770;SDS011;18343;50.152;8.182;2024-03-29T08:12:35;4.65;;;2.00;;
31770;SDS011;18343;50.152;8.182;2024-03-29T08:15:19;3.55;;;1.70;;
31770;SDS011;18343;50.152;8.182;2024-03-29T08:18:04;1.92;;;1.63;;
31770;SDS011;18343;50.152;8.182;2024-03-29T08:20:50;3.80;;;1.45;;
31770;SDS011;18343;50.152;8.182;2024-03-29T08:23:35;1.92;;;1.08;;
31770;SDS011;18343;50.152;8.182;2024-03-29T08:26:20;3.00;;;1.30;;
31770;SDS011;18343;50.152;8.182;2024-03-29T08:29:05;4.13;;;1.40;;
31770;SDS011;18343;50.152;8.182;2024-03-29T08:31:50;2.80;;;1.50;;
31770;SDS011;18343;50.152;8.182;2024-03-29T08:34:35;5.93;;;1.50;;
31770;SDS011;18343;50.152;8.182;2024-03-29T08:37:21;2.53;;;1.30;;
31770;SDS011;18343;50.152;8.182;2024-03-29T08:40:07;2.00;;;1.30;;
31770;SDS011;18343;50.152;8.182;2024-03-29T08:43:04;3.58;;;1.40;;
31770;SDS011;18343;50.152;8.182;2024-03-29T08:45:52;4.10;;;1.75;;
31770;SDS011;18343;50.152;8.182;2024-03-29T08:48:40;2.20;;;1.20;;
31770;SDS011;18343;50.152;8.182;2024-03-29T08:51:25;4.35;;;1.23;;
31770;SDS011;18343;50.152;8.182;2024-03-29T08:54:09;3.33;;;1.52;;
31770;SDS011;18343;50.152;8.182;2024-03-29T08:56:54;3.40;;;1.60;;
31770;SDS011;18343;50.152;8.182;2024-03-29T08:59:39;3.33;;;1.55;;
31770;SDS011;18343;50.152;8.182;2024-03-29T09:02:25;4.25;;;1.40;;
31770;SDS011;18343;50.152;8.182;2024-03-29T09:05:14;4.10;;;1.90;;
31770;SDS011;18343;50.152;8.182;2024-03-29T09:07:59;4.15;;;1.70;;
31770;SDS011;18343;50.152;8.182;2024-03-29T09:10:45;3.65;;;1.70;;
31770;SDS011;18343;50.152;8.182;2024-03-29T09:13:33;6.40;;;2.28;;
31770;SDS011;18343;50.152;8.182;2024-03-29T09:16:18;5.45;;;2.10;;
31770;SDS011;18343;50.152;8.182;2024-03-29T09:19:05;7.05;;;2.15;;
31770;SDS011;18343;50.152;8.182;2024-03-29T09:21:51;5.93;;;2.10;;
31770;SDS011;18343;50.152;8.182;2024-03-29T09:24:36;2.45;;;1.85;;
31770;SDS011;18343;50.152;8.182;2024-03-29T09:27:20;5.97;;;2.20;;
31770;SDS011;18343;50.152;8.182;2024-03-29T09:30:06;2.90;;;1.85;;
31770;SDS011;18343;50.152;8.182;2024-03-29T09:32:54;2.53;;;2.25;;
31770;SDS011;18343;50.152;8.182;2024-03-29T09:35:41;3.40;;;1.60;;
31770;SDS011;18343;50.152;8.182;2024-03-29T09:38:27;4.32;;;1.70;;
31770;SDS011;18343;50.152;8.182;2024-03-29T09:41:13;4.10;;;2.30;;
31770;SDS011;18343;50.152;8.182;2024-03-29T09:44:00;3.05;;;2.20;;
31770;SDS011;18343;50.152;8.182;2024-03-29T09:46:49;4.60;;;2.20;;
31770;SDS011;18343;50.152;8.182;2024-03-29T09:49:41;4.25;;;2.47;;
31770;SDS011;18343;50.152;8.182;2024-03-29T09:52:30;4.63;;;2.00;;
31770;SDS011;18343;50.152;8.182;2024-03-29T09:55:16;4.72;;;2.30;;
31770;SDS011;18343;50.152;8.182;2024-03-29T09:58:05;2.67;;;2.10;;
31770;SDS011;18343;50.152;8.182;2024-03-29T10:00:50;4.80;;;2.00;;
31770;SDS011;18343;50.152;8.182;2024-03-29T10:03:36;3.80;;;2.25;;
31770;SDS011;18343;50.152;8.182;2024-03-29T10:06:23;2.83;;;2.30;;
31770;SDS011;18343;50.152;8.182;2024-03-29T10:09:13;3.75;;;2.20;;
31770;SDS011;18343;50.152;8.182;2024-03-29T10:11:58;6.10;;;2.58;;
31770;SDS011;18343;50.152;8.182;2024-03-29T10:14:43;4.88;;;2.95;;
31770;SDS011;18343;50.152;8.182;2024-03-29T10:17:29;4.97;;;2.40;;
31770;SDS011;18343;50.152;8.182;2024-03-29T10:20:16;8.68;;;2.90;;
31770;SDS011;18343;50.152;8.182;2024-03-29T10:23:02;4.25;;;2.60;;
31770;SDS011;18343;50.152;8.182;2024-03-29T10:25:48;4.80;;;2.80;;
31770;SDS011;18343;50.152;8.182;2024-03-29T10:28:34;4.32;;;2.50;;
31770;SDS011;18343;50.152;8.182;2024-03-29T10:31:20;3.90;;;2.65;;
31770;SDS011;18343;50.152;8.182;2024-03-29T10:34:05;3.35;;;2.60;;
31770;SDS011;18343;50.152;8.182;2024-03-29T10:36:50;7.55;;;2.35;;
31770;SDS011;18343;50.152;8.182;2024-03-29T10:39:34;3.38;;;2.45;;
31770;SDS011;18343;50.152;8.182;2024-03-29T10:42:20;6.10;;;3.72;;
31770;SDS011;18343;50.152;8.182;2024-03-29T10:45:10;4.05;;;2.72;;
31770;SDS011;18343;50.152;8.182;2024-03-29T10:47:58;4.35;;;3.17;;
31770;SDS011;18343;50.152;8.182;2024-03-29T10:50:44;4.88;;;3.03;;
31770;SDS011;18343;50.152;8.182;2024-03-29T10:53:31;5.45;;;3.20;;
31770;SDS011;18343;50.152;8.182;2024-03-29T10:56:15;4.78;;;2.95;;
31770;SDS011;18343;50.152;8.182;2024-03-29T10:59:04;4.50;;;3.45;;
31770;SDS011;18343;50.152;8.182;2024-03-29T11:01:56;3.95;;;3.50;;
31770;SDS011;18343;50.152;8.182;2024-03-29T11:04:48;7.03;;;4.45;;
31770;SDS011;18343;50.152;8.182;2024-03-29T11:07:34;8.38;;;4.47;;
31770;SDS011;18343;50.152;8.182;2024-03-29T11:10:24;11.65;;;5.15;;
31770;SDS011;18343;50.152;8.182;2024-03-29T11:13:16;5.63;;;4.90;;
31770;SDS011;18343;50.152;8.182;2024-03-29T11:16:11;7.57;;;5.05;;
31770;SDS011;18343;50.152;8.182;2024-03-29T11:18:58;13.43;;;5.22;;
31770;SDS011;18343;50.152;8.182;2024-03-29T11:21:43;5.80;;;4.57;;
31770;SDS011;18343;50.152;8.182;2024-03-29T11:24:29;7.38;;;4.80;;
31770;SDS011;18343;50.152;8.182;2024-03-29T11:27:15;5.95;;;4.43;;
31770;SDS011;18343;50.152;8.182;2024-03-29T11:30:01;6.82;;;4.70;;
31770;SDS011;18343;50.152;8.182;2024-03-29T11:32:51;7.75;;;5.50;;
31770;SDS011;18343;50.152;8.182;2024-03-29T11:35:39;9.60;;;5.00;;
31770;SDS011;18343;50.152;8.182;2024-03-29T11:38:32;6.00;;;4.57;;
31770;SDS011;18343;50.152;8.182;2024-03-29T11:41:19;9.90;;;5.60;;
31770;SDS011;18343;50.152;8.182;2024-03-29T11:44:07;6.95;;;4.90;;
31770;SDS011;18343;50.152;8.182;2024-03-29T11:46:52;6.03;;;4.60;;
31770;SDS011;18343;50.152;8.182;2024-03-29T11:49:42;7.15;;;4.50;;
31770;SDS011;18343;50.152;8.182;2024-03-29T11:52:27;7.03;;;4.65;;
31770;SDS011;18343;50.152;8.182;2024-03-29T11:55:13;8.52;;;5.22;;
31770;SDS011;18343;50.152;8.182;2024-03-29T11:57:58;6.40;;;5.07;;
31770;SDS011;18343;50.152;8.182;2024-03-29T12:00:43;5.45;;;4.85;;
31770;SDS011;18343;50.152;8.182;2024-03-29T12:03:38;8.18;;;5.10;;
31770;SDS011;18343;50.152;8.182;2024-03-29T12:06:26;6.90;;;5.93;;
31770;SDS011;18343;50.152;8.182;2024-03-29T12:09:13;6.90;;;4.30;;
31770;SDS011;18343;50.152;8.182;2024-03-29T12:11:58;5.55;;;4.40;;
31770;SDS011;18343;50.152;8.182;2024-03-29T12:14:43;6.50;;;4.25;;
31770;SDS011;18343;50.152;8.182;2024-03-29T12:17:28;6.03;;;4.35;;
31770;SDS011;18343;50.152;8.182;2024-03-29T12:20:13;6.95;;;4.07;;
31770;SDS011;18343;50.152;8.182;2024-03-29T12:23:00;4.93;;;4.10;;
31770;SDS011;18343;50.152;8.182;2024-03-29T12:25:45;5.25;;;4.15;;
31770;SDS011;18343;50.152;8.182;2024-03-29T12:28:31;4.53;;;3.90;;
31770;SDS011;18343;50.152;8.182;2024-03-29T12:31:16;5.18;;;3.60;;
31770;SDS011;18343;50.152;8.182;2024-03-29T12:34:01;4.88;;;3.83;;
31770;SDS011;18343;50.152;8.182;2024-03-29T12:36:47;5.85;;;4.30;;
31770;SDS011;18343;50.152;8.182;2024-03-29T12:39:34;6.55;;;5.85;;
31770;SDS011;18343;50.152;8.182;2024-03-29T12:42:18;6.88;;;6.18;;
31770;SDS011;18343;50.152;8.182;2024-03-29T12:45:03;5.45;;;4.50;;
31770;SDS011;18343;50.152;8.182;2024-03-29T12:47:50;6.00;;;4.07;;
31770;SDS011;18343;50.152;8.182;2024-03-29T12:50:34;5.03;;;4.50;;
31770;SDS011;18343;50.152;8.182;2024-03-29T12:53:19;6.70;;;4.88;;
31770;SDS011;18343;50.152;8.182;2024-03-29T12:56:06;5.32;;;4.80;;
31770;SDS011;18343;50.152;8.182;2024-03-29T12:58:51;5.63;;;4.93;;
31770;SDS011;18343;50.152;8.182;2024-03-29T13:01:37;5.00;;;4.18;;
31770;SDS011;18343;50.152;8.182;2024-03-29T13:04:22;5.60;;;4.40;;
31770;SDS011;18343;50.152;8.182;2024-03-29T13:07:07;5.07;;;4.25;;
31770;SDS011;18343;50.152;8.182;2024-03-29T13:09:52;4.40;;;3.55;;
31770;SDS011;18343;50.152;8.182;2024-03-29T13:12:39;8.68;;;3.72;;
31770;SDS011;18343;50.152;8.182;2024-03-29T13:15:26;4.05;;;3.47;;
31770;SDS011;18343;50.152;8.182;2024-03-29T13:18:12;4.28;;;3.78;;
31770;SDS011;18343;50.152;8.182;2024-03-29T13:21:00;4.45;;;3.30;;
31770;SDS011;18343;50.152;8.182;2024-03-29T13:23:45;3.60;;;3.10;;
31770;SDS011;18343;50.152;8.182;2024-03-29T13:26:30;3.67;;;3.13;;
31770;SDS011;18343;50.152;8.182;2024-03-29T13:29:17;3.47;;;3.17;;
31770;SDS011;18343;50.152;8.182;2024-03-29T13:32:02;4.18;;;3.75;;
31770;SDS011;18343;50.152;8.182;2024-03-29T13:34:50;5.20;;;3.88;;
31770;SDS011;18343;50.152;8.182;2024-03-29T13:37:34;5.72;;;4.38;;
31770;SDS011;18343;50.152;8.182;2024-03-29T13:40:22;5.60;;;3.65;;
31770;SDS011;18343;50.152;8.182;2024-03-29T13:43:08;5.80;;;3.38;;
31770;SDS011;18343;50.152;8.182;2024-03-29T13:45:56;4.60;;;3.72;;
31770;SDS011;18343;50.152;8.182;2024-03-29T13:48:40;5.10;;;3.97;;
31770;SDS011;18343;50.152;8.182;2024-03-29T13:51:25;3.55;;;3.25;;
31770;SDS011;18343;50.152;8.182;2024-03-29T13:54:13;4.43;;;3.75;;
31770;SDS011;18343;50.152;8.182;2024-03-29T13:56:58;5.75;;;4.50;;
31770;SDS011;18343;50.152;8.182;2024-03-29T13:59:48;5.50;;;4.28;;
31770;SDS011;18343;50.152;8.182;2024-03-29T14:02:34;6.43;;;4.72;;
31770;SDS011;18343;50.152;8.182;2024-03-29T14:05:18;6.05;;;4.43;;
31770;SDS011;18343;50.152;8.182;2024-03-29T14:08:03;6.05;;;4.35;;
31770;SDS011;18343;50.152;8.182;2024-03-29T14:10:49;10.43;;;7.40;;
31770;SDS011;18343;50.152;8.182;2024-03-29T14:13:34;8.88;;;5.90;;
31770;SDS011;18343;50.152;8.182;2024-03-29T14:16:19;6.75;;;5.30;;
31770;SDS011;18343;50.152;8.182;2024-03-29T14:19:06;10.18;;;6.50;;
31770;SDS011;18343;50.152;8.182;2024-03-29T14:21:52;9.20;;;4.97;;
31770;SDS011;18343;50.152;8.182;2024-03-29T14:24:38;10.73;;;5.90;;
31770;SDS011;18343;50.152;8.182;2024-03-29T14:27:23;8.48;;;6.35;;
31770;SDS011;18343;50.152;8.182;2024-03-29T14:30:09;8.32;;;5.10;;
31770;SDS011;18343;50.152;8.182;2024-03-29T14:32:56;8.48;;;5.70;;
31770;SDS011;18343;50.152;8.182;2024-03-29T14:35:42;9.35;;;5.75;;
31770;SDS011;18343;50.152;8.182;2024-03-29T14:38:27;8.32;;;5.35;;
31770;SDS011;18343;50.152;8.182;2024-03-29T14:41:12;6.45;;;4.85;;
31770;SDS011;18343;50.152;8.182;2024-03-29T14:43:59;6.50;;;4.90;;
31770;SDS011;18343;50.152;8.182;2024-03-29T14:46:44;8.48;;;6.45;;
31770;SDS011;18343;50.152;8.182;2024-03-29T14:49:29;8.20;;;6.45;;
31770;SDS011;18343;50.152;8.182;2024-03-29T14:52:16;6.05;;;5.45;;
31770;SDS011;18343;50.152;8.182;2024-03-29T14:55:01;8.68;;;6.03;;
31770;SDS011;18343;50.152;8.182;2024-03-29T14:57:46;10.20;;;6.72;;
31770;SDS011;18343;50.152;8.182;2024-03-29T15:00:30;5.85;;;4.70;;
31770;SDS011;18343;50.152;8.182;2024-03-29T15:03:17;5.65;;;4.43;;
31770;SDS011;18343;50.152;8.182;2024-03-29T15:06:02;6.32;;;4.95;;
31770;SDS011;18343;50.152;8.182;2024-03-29T15:08:49;9.23;;;5.82;;
31770;SDS011;18343;50.152;8.182;2024-03-29T15:11:36;9.45;;;5.30;;
31770;SDS011;18343;50.152;8.182;2024-03-29T15:14:21;5.82;;;4.15;;
31770;SDS011;18343;50.152;8.182;2024-03-29T15:17:06;5.20;;;3.95;;
31770;SDS011;18343;50.152;8.182;2024-03-29T15:19:51;6.95;;;3.60;;
31770;SDS011;18343;50.152;8.182;2024-03-29T15:22:35;4.80;;;3.60;;
31770;SDS011;18343;50.152;8.182;2024-03-29T15:25:22;3.88;;;3.17;;
31770;SDS011;18343;50.152;8.182;2024-03-29T15:28:07;7.43;;;2.92;;
31770;SDS011;18343;50.152;8.182;2024-03-29T15:30:52;5.88;;;3.10;;
31770;SDS011;18343;50.152;8.182;2024-03-29T15:33:37;4.00;;;3.08;;
31770;SDS011;18343;50.152;8.182;2024-03-29T15:36:22;6.00;;;3.65;;
31770;SDS011;18343;50.152;8.182;2024-03-29T15:39:07;7.35;;;4.70;;
31770;SDS011;18343;50.152;8.182;2024-03-29T15:41:53;4.95;;;3.35;;
31770;SDS011;18343;50.152;8.182;2024-03-29T15:44:38;4.55;;;3.75;;
31770;SDS011;18343;50.152;8.182;2024-03-29T15:47:23;4.28;;;3.60;;
31770;SDS011;18343;50.152;8.182;2024-03-29T15:50:08;4.53;;;3.60;;
31770;SDS011;18343;50.152;8.182;2024-03-29T15:52:53;3.63;;;3.13;;
31770;SDS011;18343;50.152;8.182;2024-03-29T15:55:38;4.28;;;2.90;;
31770;SDS011;18343;50.152;8.182;2024-03-29T15:58:29;4.15;;;3.17;;
31770;SDS011;18343;50.152;8.182;2024-03-29T16:01:13;3.97;;;3.50;;
31770;SDS011;18343;50.152;8.182;2024-03-29T16:03:58;7.75;;;5.28;;
31770;SDS011;18343;50.152;8.182;2024-03-29T16:06:43;6.32;;;4.07;;
31770;SDS011;18343;50.152;8.182;2024-03-29T16:09:31;6.38;;;4.43;;
31770;SDS011;18343;50.152;8.182;2024-03-29T16:12:19;4.68;;;4.22;;
31770;SDS011;18343;50.152;8.182;2024-03-29T16:15:07;5.85;;;4.38;;
31770;SDS011;18343;50.152;8.182;2024-03-29T16:17:52;8.82;;;5.20;;
31770;SDS011;18343;50.152;8.182;2024-03-29T16:20:36;8.18;;;6.50;;
31770;SDS011;18343;50.152;8.182;2024-03-29T16:23:23;8.18;;;7.15;;
31770;SDS011;18343;50.152;8.182;2024-03-29T16:26:08;7.93;;;7.00;;
31770;SDS011;18343;50.152;8.182;2024-03-29T16:28:53;10.05;;;8.95;;
31770;SDS011;18343;50.152;8.182;2024-03-29T16:31:39;11.70;;;9.20;;
31770;SDS011;18343;50.152;8.182;2024-03-29T16:34:24;11.73;;;9.65;;
31770;SDS011;18343;50.152;8.182;2024-03-29T16:37:14;13.43;;;10.18;;
31770;SDS011;18343;50.152;8.182;2024-03-29T16:40:04;11.98;;;8.70;;